createdAt,value
2023-03-23T00:03:46.561Z,468.00
2023-03-23T00:07:47.283Z,465.00
2023-03-23T00:11:48.005Z,461.00
2023-03-23T00:15:48.767Z,460.00
2023-03-23T00:19:49.515Z,458.00
2023-03-23T00:23:50.237Z,458.00
2023-03-23T00:27:50.993Z,460.00
2023-03-23T00:31:51.763Z,460.00
2023-03-23T00:35:52.530Z,456.00
2023-03-23T00:39:53.204Z,462.00
2023-03-23T00:43:53.927Z,470.00
2023-03-23T00:47:54.641Z,458.00
2023-03-23T00:51:55.390Z,456.00
2023-03-23T00:55:56.130Z,454.00
2023-03-23T00:59:56.942Z,455.00
2023-03-23T01:03:58.683Z,451.00
2023-03-23T01:07:58.409Z,458.00
2023-03-23T01:11:59.145Z,456.00
2023-03-23T01:15:59.883Z,460.00
2023-03-23T01:20:00.596Z,462.00
2023-03-23T01:24:01.310Z,461.00
2023-03-23T01:28:02.002Z,457.00
2023-03-23T01:32:02.710Z,457.00
2023-03-23T01:36:03.475Z,454.00
2023-03-23T01:40:04.213Z,455.00
2023-03-23T01:44:04.993Z,460.00
2023-03-23T01:48:05.740Z,460.00
2023-03-23T01:52:06.518Z,457.00
2023-03-23T01:56:07.307Z,450.00
2023-03-23T02:00:08.080Z,450.00
2023-03-23T02:04:08.836Z,457.00
2023-03-23T02:08:09.585Z,455.00
2023-03-23T02:12:10.391Z,461.00
2023-03-23T02:16:11.154Z,460.00
2023-03-23T02:20:11.973Z,461.00
2023-03-23T02:24:12.780Z,456.00
2023-03-23T02:28:13.646Z,454.00
2023-03-23T02:32:14.537Z,457.00
2023-03-23T02:36:15.395Z,456.00
2023-03-23T02:40:16.405Z,458.00
2023-03-23T05:08:50.824Z,460.00
2023-03-23T05:16:52.706Z,457.00
2023-03-23T05:20:53.585Z,465.00
2023-03-23T05:24:54.509Z,455.00
2023-03-23T05:28:55.433Z,448.00
2023-03-23T05:32:57.353Z,459.00
2023-03-23T05:36:57.229Z,456.00
2023-03-23T05:40:58.098Z,454.00
2023-03-23T05:44:58.971Z,453.00
2023-03-23T05:48:59.995Z,455.00
2023-03-23T05:53:00.959Z,463.00
2023-03-23T05:57:02.069Z,452.00
2023-03-23T06:01:03.140Z,457.00
2023-03-23T06:05:04.183Z,452.00
2023-03-23T06:09:06.620Z,450.00
2023-03-23T06:13:06.273Z,450.00
2023-03-23T06:17:07.322Z,445.00
2023-03-23T06:21:08.387Z,447.00
2023-03-23T06:29:09.903Z,449.00
2023-03-23T06:33:10.719Z,449.00
2023-03-23T06:37:11.408Z,448.00
2023-03-23T06:41:12.182Z,445.00
2023-03-23T06:45:13.062Z,461.00
2023-03-23T06:49:13.926Z,448.00
2023-03-23T06:53:14.738Z,454.00
2023-03-23T06:57:15.575Z,455.00
2023-03-23T07:01:16.473Z,448.00
2023-03-23T07:05:17.417Z,456.00
2023-03-23T07:09:18.360Z,443.00
2023-03-23T07:13:19.265Z,442.00
2023-03-23T07:17:20.352Z,457.00
2023-03-23T07:21:20.991Z,441.00
2023-03-23T07:25:21.794Z,451.00
2023-03-23T07:29:22.754Z,452.00
2023-03-23T07:33:23.590Z,456.00
2023-03-23T07:37:24.453Z,451.00
2023-03-23T07:41:25.359Z,457.00
2023-03-23T07:45:27.196Z,468.00
2023-03-23T07:49:27.100Z,450.00
2023-03-23T07:53:27.840Z,453.00
2023-03-23T07:57:28.544Z,456.00
2023-03-23T08:01:29.204Z,459.00
2023-03-23T08:05:29.852Z,445.00
2023-03-23T08:09:30.551Z,455.00
2023-03-23T08:13:31.245Z,449.00
2023-03-23T08:17:31.872Z,440.00
2023-03-23T08:21:33.573Z,439.00
2023-03-23T08:25:33.293Z,437.00
2023-03-23T08:29:34.173Z,443.00
2023-03-23T08:33:34.864Z,440.00
2023-03-23T08:37:35.557Z,423.00
2023-03-23T08:41:36.234Z,443.00
2023-03-23T08:45:36.846Z,444.00
2023-03-23T08:49:37.495Z,443.00
2023-03-23T08:53:38.192Z,445.00
2023-03-23T08:57:38.880Z,439.00
2023-03-23T09:01:39.543Z,444.00
2023-03-23T09:05:40.392Z,446.00
2023-03-23T09:09:41.633Z,444.00
2023-03-23T09:13:42.572Z,448.00
2023-03-23T09:17:42.078Z,446.00
2023-03-23T09:21:43.201Z,441.00
2023-03-23T09:25:43.458Z,446.00
2023-03-23T09:29:43.534Z,448.00
2023-03-23T09:33:47.162Z,442.00
2023-03-23T09:37:44.423Z,444.00
2023-03-23T09:41:44.892Z,447.00
2023-03-23T09:45:45.386Z,446.00
2023-03-23T09:53:46.225Z,444.00
2023-03-23T11:09:54.052Z,442.00
2023-03-23T11:13:54.385Z,441.00
2023-03-23T11:17:54.707Z,439.00
2023-03-23T11:21:55.221Z,440.00
2023-03-23T11:25:55.731Z,438.00
2023-03-23T11:29:58.685Z,441.00
2023-03-23T11:34:05.977Z,445.00
2023-03-23T11:57:58.412Z,437.00
2023-03-23T12:05:58.994Z,455.00
2023-03-23T12:09:59.304Z,444.00
2023-03-23T12:13:59.679Z,446.00
2023-03-23T12:18:00.116Z,441.00
2023-03-23T12:22:00.533Z,447.00
2023-03-23T12:30:01.266Z,452.00
2023-03-23T13:02:04.124Z,451.00
2023-03-23T13:10:05.385Z,440.00
2023-03-23T13:14:04.859Z,449.00
2023-03-23T13:26:05.817Z,449.00
2023-03-23T14:50:11.337Z,455.00
2023-03-23T15:10:10.823Z,446.00
2023-03-23T15:14:10.975Z,450.00
2023-03-23T15:18:11.365Z,453.00
2023-03-23T15:22:12.401Z,454.00
2023-03-23T15:26:11.641Z,447.00
2023-03-23T15:30:11.745Z,446.00
2023-03-23T15:34:11.892Z,445.00
2023-03-23T15:38:12.059Z,447.00
2023-03-23T15:42:12.254Z,448.00
2023-03-23T15:46:12.435Z,451.00
2023-03-23T15:50:12.617Z,447.00
2023-03-23T15:58:13.003Z,454.00
2023-03-23T16:02:13.305Z,449.00
2023-03-23T16:06:13.396Z,447.00
2023-03-23T16:10:14.602Z,445.00
2023-03-23T16:14:13.792Z,439.00
2023-03-23T16:18:14.107Z,440.00
2023-03-23T16:22:15.162Z,435.00
2023-03-23T16:26:14.762Z,434.00
2023-03-23T16:30:15.121Z,434.00
2023-03-23T16:34:15.518Z,434.00
2023-03-23T16:38:16.370Z,438.00
2023-03-23T16:42:16.352Z,441.00
2023-03-23T16:46:16.858Z,440.00
2023-03-23T16:50:17.241Z,438.00
2023-03-23T16:54:17.616Z,438.00
2023-03-23T16:58:18.330Z,440.00
2023-03-23T17:02:18.563Z,445.00
2023-03-23T17:06:18.983Z,446.00
2023-03-23T17:10:19.229Z,447.00
2023-03-23T17:14:19.449Z,448.00
2023-03-23T17:18:19.658Z,449.00
2023-03-23T17:22:19.892Z,443.00
2023-03-23T17:26:20.135Z,450.00
2023-03-23T17:30:20.851Z,451.00
2023-03-23T17:34:20.661Z,451.00
2023-03-23T17:38:21.351Z,447.00
2023-03-23T17:42:21.219Z,452.00
2023-03-23T17:46:21.533Z,448.00
2023-03-23T17:50:21.857Z,449.00
2023-03-23T17:54:22.125Z,449.00
2023-03-23T17:58:22.530Z,448.00
2023-03-23T18:02:22.877Z,450.00
2023-03-23T18:06:23.038Z,457.00
2023-03-23T18:10:23.422Z,453.00
2023-03-23T18:14:23.761Z,450.00
2023-03-23T18:18:24.053Z,448.00
2023-03-23T18:22:24.393Z,446.00
2023-03-23T18:26:24.750Z,450.00
2023-03-23T18:30:25.109Z,456.00
2023-03-23T18:34:25.463Z,454.00
2023-03-23T18:38:26.001Z,451.00
2023-03-23T18:42:26.614Z,457.00
2023-03-23T18:46:27.079Z,460.00
2023-03-23T18:50:27.682Z,463.00
2023-03-23T18:54:28.200Z,465.00
2023-03-23T18:58:28.778Z,462.00
2023-03-23T19:02:29.461Z,464.00
2023-03-23T19:06:29.934Z,456.00
2023-03-23T19:10:30.889Z,460.00
2023-03-23T19:14:31.184Z,465.00
2023-03-23T19:18:31.796Z,461.00
2023-03-23T19:22:32.440Z,459.00
2023-03-23T19:26:36.695Z,461.00
2023-03-23T19:30:33.419Z,462.00
2023-03-23T19:34:33.897Z,465.00
2023-03-23T19:38:34.275Z,460.00
2023-03-23T19:42:34.643Z,470.00
2023-03-23T19:46:35.035Z,474.00
2023-03-23T19:50:35.409Z,461.00
2023-03-23T19:54:35.853Z,464.00
2023-03-23T19:58:36.192Z,469.00
2023-03-23T20:02:37.264Z,466.00
2023-03-23T20:06:37.684Z,459.00
2023-03-23T20:10:37.409Z,458.00
2023-03-23T20:14:37.802Z,454.00
2023-03-23T20:18:38.380Z,457.00
2023-03-23T20:22:38.835Z,462.00
2023-03-23T20:26:39.180Z,445.00
2023-03-23T20:30:39.582Z,448.00
2023-03-23T20:34:40.413Z,450.00
2023-03-23T20:38:40.435Z,459.00
2023-03-23T20:42:40.872Z,458.00
2023-03-23T20:46:41.316Z,456.00
2023-03-23T20:50:41.764Z,455.00
2023-03-23T20:54:42.198Z,458.00
2023-03-23T20:58:42.657Z,450.00
2023-03-23T21:02:43.164Z,454.00
2023-03-23T21:06:43.576Z,452.00
2023-03-23T21:10:45.150Z,445.00
2023-03-23T21:14:44.531Z,452.00
2023-03-23T21:18:45.020Z,449.00
2023-03-23T21:22:45.516Z,450.00
2023-03-23T21:26:46.014Z,453.00
2023-03-23T21:30:46.798Z,459.00
2023-03-23T21:34:47.204Z,454.00
2023-03-23T21:38:47.888Z,448.00
2023-03-23T21:42:48.562Z,449.00
2023-03-23T21:46:49.260Z,452.00
2023-03-23T21:50:49.882Z,457.00
2023-03-23T21:54:50.576Z,454.00
2023-03-23T21:58:51.285Z,459.00
2023-03-23T22:02:51.997Z,456.00
2023-03-23T22:06:52.664Z,458.00
2023-03-23T22:11:01.387Z,452.00
2023-03-23T22:14:54.813Z,455.00
2023-03-23T22:18:54.301Z,458.00
2023-03-23T22:22:54.931Z,460.00
2023-03-23T22:26:55.619Z,468.00
2023-03-23T22:30:56.333Z,462.00
2023-03-23T22:34:57.463Z,459.00
2023-03-23T22:38:57.760Z,462.00
2023-03-23T22:42:58.485Z,463.00
2023-03-23T22:46:59.945Z,461.00
2023-03-23T22:50:59.987Z,464.00
2023-03-23T22:55:00.680Z,470.00
2023-03-23T22:59:01.357Z,466.00
2023-03-23T23:03:02.123Z,462.00
2023-03-23T23:07:12.585Z,463.00
2023-03-23T23:11:03.330Z,462.00
2023-03-23T23:15:03.835Z,465.00
2023-03-23T23:19:04.438Z,459.00
2023-03-23T23:23:05.464Z,457.00
2023-03-23T23:27:05.943Z,456.00
2023-03-23T23:31:06.513Z,455.00
2023-03-23T23:35:07.056Z,460.00
2023-03-23T23:39:07.560Z,459.00
2023-03-23T23:43:08.101Z,456.00
2023-03-23T23:47:08.640Z,451.00
2023-03-23T23:51:09.466Z,452.00
2023-03-23T23:55:09.692Z,459.00
2023-03-23T23:59:10.229Z,455.00
